createdAt,value
2022-08-22T00:01:23.905Z,20.54
2022-08-22T00:03:01.344Z,20.80
2022-08-22T00:03:53.471Z,20.57
2022-08-22T00:06:29.163Z,20.42
2022-08-22T00:09:34.538Z,20.55
2022-08-22T00:12:13.019Z,20.57
2022-08-22T00:14:47.021Z,20.52
2022-08-22T00:17:27.706Z,20.52
2022-08-22T00:20:12.440Z,20.55
2022-08-22T00:22:50.894Z,20.49
2022-08-22T00:25:29.415Z,20.43
2022-08-22T00:28:05.145Z,20.49
2022-08-22T00:30:38.435Z,20.51
2022-08-22T00:33:13.761Z,20.36
2022-08-22T00:35:48.401Z,20.69
2022-08-22T00:38:38.072Z,20.77
2022-08-22T00:41:22.411Z,20.77
2022-08-22T00:43:54.981Z,20.68
2022-08-22T00:46:46.512Z,20.68
2022-08-22T00:49:33.049Z,20.45
2022-08-22T00:52:18.468Z,20.17
2022-08-22T00:55:18.626Z,20.28
2022-08-22T00:58:09.598Z,20.19
2022-08-22T01:00:43.779Z,20.25
2022-08-22T01:03:40.364Z,20.24
2022-08-22T01:06:22.272Z,20.39
2022-08-22T01:08:51.399Z,20.39
2022-08-22T01:11:27.328Z,20.23
2022-08-22T01:14:35.147Z,20.15
2022-08-22T01:17:15.797Z,20.11
2022-08-22T01:20:01.140Z,20.02
2022-08-22T01:22:45.935Z,19.80
2022-08-22T01:25:39.626Z,19.78
2022-08-22T01:28:27.933Z,19.78
2022-08-22T01:31:16.534Z,19.80
2022-08-22T01:34:20.568Z,19.86
2022-08-22T01:37:24.080Z,19.53
2022-08-22T01:40:12.114Z,19.31
2022-08-22T01:43:07.859Z,19.27
2022-08-22T01:45:40.268Z,19.27
2022-08-22T01:48:06.674Z,19.24
2022-08-22T01:50:40.001Z,19.30
2022-08-22T01:53:09.828Z,19.37
2022-08-22T01:56:14.693Z,19.35
2022-08-22T01:58:54.228Z,19.25
2022-08-22T02:01:49.900Z,19.47
2022-08-22T02:04:29.326Z,19.35
2022-08-22T02:07:13.925Z,19.43
2022-08-22T02:10:05.410Z,19.67
2022-08-22T02:12:41.312Z,19.52
2022-08-22T02:15:37.480Z,19.70
2022-08-22T02:18:07.099Z,19.66
2022-08-22T02:20:48.776Z,19.68
2022-08-22T02:23:18.040Z,19.62
2022-08-22T02:26:03.551Z,19.46
2022-08-22T02:28:56.464Z,19.52
2022-08-22T02:31:38.888Z,19.41
2022-08-22T02:34:52.919Z,19.36
2022-08-22T02:37:30.494Z,19.54
2022-08-22T02:40:14.289Z,19.49
2022-08-22T02:43:03.188Z,19.31
2022-08-22T02:45:41.712Z,19.42
2022-08-22T02:48:37.029Z,19.52
2022-08-22T02:51:11.011Z,19.25
2022-08-22T02:53:52.861Z,19.11
2022-08-22T02:56:33.473Z,19.08
2022-08-22T02:59:24.273Z,18.85
2022-08-22T03:01:54.299Z,19.06
2022-08-22T03:04:44.507Z,18.91
2022-08-22T03:07:20.639Z,18.91
2022-08-22T03:10:01.198Z,18.61
2022-08-22T03:12:57.501Z,18.50
2022-08-22T03:15:33.840Z,18.47
2022-08-22T03:18:12.869Z,18.70
2022-08-22T03:21:06.877Z,18.73
2022-08-22T03:23:40.974Z,18.60
2022-08-22T03:26:18.663Z,18.45
2022-08-22T03:28:54.387Z,18.68
2022-08-22T03:31:27.052Z,18.75
2022-08-22T03:34:16.554Z,18.55
2022-08-22T03:37:01.374Z,18.40
2022-08-22T03:39:51.969Z,18.29
2022-08-22T03:42:49.098Z,18.35
2022-08-22T03:45:30.800Z,18.35
2022-08-22T03:48:32.481Z,18.22
2022-08-22T03:51:25.507Z,18.20
2022-08-22T03:54:37.366Z,18.19
2022-08-22T03:57:41.570Z,18.09
2022-08-22T04:00:14.298Z,18.14
2022-08-22T04:03:13.676Z,17.79
2022-08-22T04:05:55.370Z,18.08
2022-08-22T04:08:44.789Z,17.98
2022-08-22T04:11:30.286Z,17.99
2022-08-22T04:14:14.255Z,18.10
2022-08-22T04:17:02.369Z,18.11
2022-08-22T04:19:37.925Z,18.06
2022-08-22T04:22:22.686Z,17.91
2022-08-22T04:25:10.814Z,17.73
2022-08-22T04:28:00.603Z,17.49
2022-08-22T04:30:33.169Z,17.55
2022-08-22T04:33:20.087Z,17.58
2022-08-22T04:35:59.790Z,17.58
2022-08-22T04:38:31.459Z,17.75
2022-08-22T04:41:07.298Z,17.75
2022-08-22T04:43:59.961Z,17.81
2022-08-22T04:46:39.050Z,17.77
2022-08-22T04:49:42.041Z,17.73
2022-08-22T04:52:17.827Z,17.55
2022-08-22T04:55:00.715Z,17.50
2022-08-22T04:58:06.689Z,17.50
2022-08-22T05:01:11.854Z,17.61
2022-08-22T05:03:46.011Z,17.76
2022-08-22T05:06:14.993Z,17.91
2022-08-22T05:08:42.663Z,17.87
2022-08-22T05:11:10.976Z,17.96
2022-08-22T05:13:41.325Z,17.99
2022-08-22T05:16:13.755Z,18.00
2022-08-22T05:18:46.904Z,18.00
2022-08-22T05:21:15.309Z,18.20
2022-08-22T05:23:46.507Z,18.15
2022-08-22T05:26:13.812Z,18.15
2022-08-22T05:28:48.331Z,18.18
2022-08-22T05:31:24.260Z,18.22
2022-08-22T05:33:55.290Z,18.16
2022-08-22T05:36:25.431Z,18.32
2022-08-22T05:38:56.431Z,18.24
2022-08-22T05:41:27.201Z,18.34
2022-08-22T05:43:54.158Z,18.34
2022-08-22T05:46:27.190Z,18.55
2022-08-22T05:48:59.685Z,19.01
2022-08-22T05:51:34.429Z,19.08
2022-08-22T05:54:09.566Z,18.84
2022-08-22T05:56:40.711Z,18.78
2022-08-22T05:59:21.146Z,18.92
2022-08-22T06:01:50.631Z,18.75
2022-08-22T06:04:27.807Z,18.74
2022-08-22T06:07:03.664Z,18.96
2022-08-22T06:09:48.290Z,18.89
2022-08-22T06:12:31.166Z,18.85
2022-08-22T06:15:24.016Z,19.02
2022-08-22T06:17:51.354Z,18.90
2022-08-22T06:20:48.867Z,19.28
2022-08-22T06:23:23.814Z,19.42
2022-08-22T06:25:51.471Z,19.30
2022-08-22T06:28:23.731Z,19.39
2022-08-22T06:30:52.703Z,19.53
2022-08-22T06:33:25.588Z,19.62
2022-08-22T06:36:07.333Z,19.57
2022-08-22T06:39:32.429Z,19.79
2022-08-22T06:42:13.239Z,19.81
2022-08-22T06:45:08.646Z,19.84
2022-08-22T06:47:50.235Z,19.78
2022-08-22T06:50:30.920Z,19.95
2022-08-22T06:53:07.477Z,20.10
2022-08-22T06:55:35.748Z,20.34
2022-08-22T06:58:05.481Z,20.33
2022-08-22T07:00:34.625Z,20.62
2022-08-22T07:03:24.005Z,22.40
2022-08-22T07:05:54.130Z,24.36
2022-08-22T07:08:22.204Z,25.75
2022-08-22T07:11:06.671Z,26.77
2022-08-22T07:13:36.042Z,27.77
2022-08-22T07:16:04.800Z,28.14
2022-08-22T07:18:31.380Z,28.44
2022-08-22T07:21:00.572Z,28.78
2022-08-22T07:23:29.963Z,28.96
2022-08-22T07:26:21.758Z,29.09
2022-08-22T07:29:15.060Z,29.13
2022-08-22T07:31:49.678Z,29.49
2022-08-22T07:34:46.986Z,29.39
2022-08-22T07:37:25.083Z,29.38
2022-08-22T07:39:53.766Z,29.26
2022-08-22T07:42:38.642Z,29.33
2022-08-22T07:45:15.465Z,29.49
2022-08-22T07:48:06.497Z,29.18
2022-08-22T07:50:38.849Z,28.85
2022-08-22T07:53:29.046Z,28.78
2022-08-22T07:55:56.538Z,29.21
2022-08-22T07:58:25.650Z,29.40
2022-08-22T08:00:53.112Z,29.27
2022-08-22T08:03:22.218Z,28.97
2022-08-22T08:05:49.194Z,29.31
2022-08-22T08:08:25.159Z,29.28
2022-08-22T08:10:54.405Z,29.47
2022-08-22T08:13:35.105Z,29.51
2022-08-22T08:16:02.928Z,29.39
2022-08-22T08:18:30.995Z,29.35
2022-08-22T08:21:00.850Z,29.35
2022-08-22T08:23:31.940Z,29.34
2022-08-22T08:26:09.455Z,29.49
2022-08-22T08:28:43.141Z,29.49
2022-08-22T08:31:16.175Z,29.54
2022-08-22T08:33:45.245Z,29.21
2022-08-22T08:36:44.626Z,29.26
2022-08-22T08:39:23.450Z,29.40
2022-08-22T08:42:05.318Z,29.39
2022-08-22T08:44:55.796Z,29.59
2022-08-22T08:48:00.202Z,29.69
2022-08-22T08:50:51.713Z,29.77
2022-08-22T08:53:32.456Z,29.41
2022-08-22T08:56:23.208Z,29.32
2022-08-22T08:59:10.086Z,29.00
2022-08-22T09:02:05.258Z,28.74
2022-08-22T09:04:40.339Z,28.87
2022-08-22T09:07:28.120Z,28.68
2022-08-22T09:10:23.340Z,28.39
2022-08-22T09:13:21.621Z,28.49
2022-08-22T09:16:17.485Z,28.32
2022-08-22T09:19:18.091Z,28.04
2022-08-22T09:22:14.368Z,27.68
2022-08-22T09:24:59.630Z,27.29
2022-08-22T09:27:33.361Z,26.74
2022-08-22T09:30:12.445Z,26.55
2022-08-22T09:32:52.210Z,26.44
2022-08-22T09:35:25.457Z,26.27
2022-08-22T09:38:11.379Z,25.79
2022-08-22T09:41:13.395Z,25.86
2022-08-22T09:43:48.776Z,25.40
2022-08-22T09:46:18.635Z,25.47
2022-08-22T09:49:01.828Z,25.40
2022-08-22T09:52:15.121Z,25.34
2022-08-22T09:54:54.857Z,25.38
2022-08-22T09:57:31.386Z,25.52
2022-08-22T10:00:15.072Z,25.40
2022-08-22T10:02:52.778Z,25.32
2022-08-22T10:05:35.256Z,25.49
2022-08-22T10:08:38.561Z,25.41
2022-08-22T10:11:20.361Z,25.48
2022-08-22T10:14:22.347Z,25.52
2022-08-22T10:16:59.613Z,25.54
2022-08-22T10:19:30.621Z,25.68
2022-08-22T10:22:38.298Z,25.75
2022-08-22T10:25:33.506Z,25.64
2022-08-22T10:28:36.599Z,25.52
2022-08-22T10:31:24.110Z,25.15
2022-08-22T10:34:04.976Z,25.14
2022-08-22T10:37:10.650Z,25.23
2022-08-22T10:39:45.537Z,25.49
2022-08-22T10:42:35.094Z,25.68
2022-08-22T10:45:36.480Z,25.82
2022-08-22T10:48:07.986Z,26.02
2022-08-22T10:50:49.232Z,25.98
2022-08-22T10:53:17.592Z,25.27
2022-08-22T10:56:00.837Z,25.18
2022-08-22T10:58:29.979Z,25.38
2022-08-22T11:00:56.447Z,25.71
2022-08-22T11:03:37.785Z,25.91
2022-08-22T11:06:31.070Z,26.07
2022-08-22T11:09:17.212Z,25.94
2022-08-22T11:12:19.024Z,26.02
2022-08-22T11:14:51.336Z,25.86
2022-08-22T11:17:30.931Z,25.61
2022-08-22T11:20:16.245Z,25.69
2022-08-22T11:23:07.780Z,26.06
2022-08-22T11:26:01.743Z,26.06
2022-08-22T11:29:11.314Z,26.14
2022-08-22T11:32:14.866Z,26.21
2022-08-22T11:34:56.114Z,26.50
2022-08-22T11:37:42.526Z,26.46
2022-08-22T11:40:31.657Z,26.42
2022-08-22T11:43:24.092Z,26.19
2022-08-22T11:45:52.346Z,25.99
2022-08-22T11:48:37.551Z,26.18
2022-08-22T11:51:24.823Z,26.43
2022-08-22T11:54:13.036Z,26.25
2022-08-22T11:56:48.343Z,26.35
2022-08-22T11:59:18.826Z,26.58
2022-08-22T12:02:04.628Z,26.25
2022-08-22T12:04:42.664Z,26.55
2022-08-22T12:07:23.070Z,26.88
2022-08-22T12:09:55.995Z,26.62
2022-08-22T12:12:25.143Z,26.68
2022-08-22T12:15:36.109Z,26.72
2022-08-22T12:18:17.759Z,26.77
2022-08-22T12:21:25.490Z,26.56
2022-08-22T12:23:58.171Z,26.58
2022-08-22T12:26:49.937Z,26.82
2022-08-22T12:30:03.379Z,26.84
2022-08-22T12:32:55.806Z,27.06
2022-08-22T12:35:40.414Z,27.28
2022-08-22T12:38:26.611Z,27.10
2022-08-22T12:41:28.492Z,27.04
2022-08-22T12:44:32.113Z,26.63
2022-08-22T12:47:17.422Z,26.86
2022-08-22T12:50:07.144Z,26.78
2022-08-22T12:53:03.160Z,27.02
2022-08-22T12:55:51.651Z,27.12
2022-08-22T12:58:55.538Z,27.16
2022-08-22T13:01:34.148Z,27.24
2022-08-22T13:04:04.542Z,27.24
2022-08-22T13:06:42.175Z,27.14
2022-08-22T13:09:32.907Z,27.13
2022-08-22T13:12:21.162Z,27.16
2022-08-22T13:14:51.025Z,27.19
2022-08-22T13:17:25.168Z,26.94
2022-08-22T13:19:55.077Z,27.28
2022-08-22T13:22:29.102Z,27.53
2022-08-22T13:25:05.075Z,27.45
2022-08-22T13:27:40.682Z,27.32
2022-08-22T13:30:24.585Z,27.10
2022-08-22T13:32:54.181Z,26.95
2022-08-22T13:35:24.628Z,26.89
2022-08-22T13:37:55.774Z,26.84
2022-08-22T13:40:28.215Z,26.78
2022-08-22T13:43:12.089Z,27.23
2022-08-22T13:45:41.760Z,27.34
2022-08-22T13:48:11.413Z,27.22
2022-08-22T13:50:55.684Z,27.33
2022-08-22T13:53:36.788Z,27.45
2022-08-22T13:56:15.613Z,27.52
2022-08-22T13:58:46.139Z,27.72
2022-08-22T14:01:25.291Z,27.78
2022-08-22T14:03:55.381Z,27.94
2022-08-22T14:06:46.255Z,28.15
2022-08-22T14:09:32.900Z,28.24
2022-08-22T14:12:33.481Z,28.49
2022-08-22T14:15:22.337Z,28.10
2022-08-22T14:17:52.277Z,27.92
2022-08-22T14:20:33.441Z,27.80
2022-08-22T14:23:25.302Z,27.63
2022-08-22T14:25:54.574Z,27.50
2022-08-22T14:28:28.289Z,27.80
2022-08-22T14:31:13.276Z,27.81
2022-08-22T14:33:47.376Z,27.64
2022-08-22T14:36:22.309Z,27.65
2022-08-22T14:38:57.232Z,27.59
2022-08-22T14:41:52.374Z,27.62
2022-08-22T14:44:49.623Z,27.82
2022-08-22T14:47:55.303Z,27.99
2022-08-22T14:50:42.292Z,27.94
2022-08-22T14:53:24.933Z,27.94
2022-08-22T14:56:12.208Z,27.61
2022-08-22T14:59:04.903Z,27.44
2022-08-22T15:01:35.555Z,27.31
2022-08-22T15:04:11.182Z,27.23
2022-08-22T15:06:47.857Z,27.21
2022-08-22T15:09:34.923Z,27.15
2022-08-22T15:12:04.806Z,27.45
2022-08-22T15:14:36.249Z,27.58
2022-08-22T15:17:06.798Z,27.63
2022-08-22T15:19:33.255Z,27.60
2022-08-22T15:22:16.235Z,27.60
2022-08-22T15:24:45.762Z,27.77
2022-08-22T15:27:18.037Z,27.87
2022-08-22T15:29:52.926Z,27.79
2022-08-22T15:32:26.577Z,27.73
2022-08-22T15:34:54.686Z,27.55
2022-08-22T15:37:21.887Z,27.53
2022-08-22T15:40:12.037Z,27.64
2022-08-22T15:42:46.207Z,27.46
2022-08-22T15:45:22.911Z,27.30
2022-08-22T15:47:52.665Z,27.10
2022-08-22T15:50:55.176Z,27.37
2022-08-22T15:53:24.820Z,27.37
2022-08-22T15:56:11.505Z,27.01
2022-08-22T15:58:39.531Z,27.18
2022-08-22T16:01:22.253Z,27.15
2022-08-22T16:04:03.844Z,27.11
2022-08-22T16:06:49.287Z,27.05
2022-08-22T16:09:28.878Z,27.17
2022-08-22T16:11:56.166Z,27.13
2022-08-22T16:14:35.037Z,27.21
2022-08-22T16:17:07.141Z,27.10
2022-08-22T16:19:35.397Z,27.17
2022-08-22T16:22:05.469Z,27.08
2022-08-22T16:24:36.816Z,27.20
2022-08-22T16:27:25.108Z,27.47
2022-08-22T16:30:00.334Z,27.48
2022-08-22T16:32:27.221Z,27.27
2022-08-22T16:34:54.255Z,27.29
2022-08-22T16:37:44.304Z,27.19
2022-08-22T16:40:29.719Z,26.88
2022-08-22T16:43:13.881Z,26.97
2022-08-22T16:45:43.030Z,26.96
2022-08-22T16:48:35.567Z,26.95
2022-08-22T16:51:14.511Z,26.71
2022-08-22T16:53:45.869Z,26.74
2022-08-22T16:56:18.276Z,26.68
2022-08-22T16:59:22.309Z,26.70
2022-08-22T17:02:08.550Z,26.55
2022-08-22T17:04:49.565Z,26.59
2022-08-22T17:07:38.347Z,26.81
2022-08-22T17:10:31.983Z,26.55
2022-08-22T17:13:01.446Z,26.65
2022-08-22T17:15:57.298Z,26.61
2022-08-22T17:18:34.661Z,26.40
2022-08-22T17:21:03.922Z,26.44
2022-08-22T17:23:55.006Z,26.24
2022-08-22T17:26:33.799Z,26.17
2022-08-22T17:29:07.949Z,26.26
2022-08-22T17:32:03.587Z,26.34
2022-08-22T17:34:41.724Z,26.00
2022-08-22T17:37:21.246Z,25.97
2022-08-22T17:40:09.376Z,25.94
2022-08-22T17:42:42.855Z,25.74
2022-08-22T17:45:27.576Z,25.66
2022-08-22T17:48:07.676Z,25.39
2022-08-22T17:50:57.742Z,25.46
2022-08-22T17:53:36.350Z,25.42
2022-08-22T17:56:23.850Z,25.43
2022-08-22T17:59:04.551Z,25.22
2022-08-22T18:01:44.898Z,25.25
2022-08-22T18:04:19.727Z,25.15
2022-08-22T18:07:18.401Z,25.02
2022-08-22T18:09:50.882Z,24.90
2022-08-22T18:12:24.294Z,24.80
2022-08-22T18:14:59.273Z,24.75
2022-08-22T18:17:31.474Z,24.83
2022-08-22T18:20:07.227Z,24.71
2022-08-22T18:22:42.332Z,24.63
2022-08-22T18:25:27.483Z,24.54
2022-08-22T18:27:56.734Z,24.48
2022-08-22T18:30:25.287Z,24.25
2022-08-22T18:33:09.442Z,24.02
2022-08-22T18:36:15.156Z,23.92
2022-08-22T18:38:49.103Z,23.82
2022-08-22T18:41:29.089Z,23.65
2022-08-22T18:44:01.194Z,23.56
2022-08-22T18:46:47.950Z,23.47
2022-08-22T18:49:24.521Z,23.42
2022-08-22T18:52:08.461Z,23.25
2022-08-22T18:54:38.693Z,23.24
2022-08-22T18:57:44.104Z,23.16
2022-08-22T19:00:20.400Z,23.12
2022-08-22T19:03:11.706Z,23.04
2022-08-22T19:05:52.978Z,23.02
2022-08-22T19:08:44.616Z,23.02
2022-08-22T19:11:33.823Z,23.03
2022-08-22T19:14:40.760Z,22.93
2022-08-22T19:17:25.320Z,22.90
2022-08-22T19:20:00.092Z,22.93
2022-08-22T19:22:32.334Z,22.86
2022-08-22T19:25:01.833Z,23.01
2022-08-22T19:27:31.459Z,22.96
2022-08-22T19:30:01.491Z,22.92
2022-08-22T19:32:46.349Z,22.94
2022-08-22T19:35:45.047Z,23.03
2022-08-22T19:38:12.870Z,22.96
2022-08-22T19:40:45.990Z,22.88
2022-08-22T19:43:27.173Z,23.02
2022-08-22T19:45:54.465Z,23.01
2022-08-22T19:48:30.615Z,23.03
2022-08-22T19:51:14.133Z,23.03
2022-08-22T19:53:48.189Z,23.08
2022-08-22T19:56:29.013Z,23.12
2022-08-22T19:59:00.958Z,23.13
2022-08-22T20:01:49.157Z,23.19
2022-08-22T20:04:46.318Z,23.23
2022-08-22T20:07:21.796Z,23.20
2022-08-22T20:09:50.951Z,23.18
2022-08-22T20:12:29.329Z,23.16
2022-08-22T20:14:56.244Z,23.14
2022-08-22T20:17:25.798Z,23.08
2022-08-22T20:22:38.875Z,22.98
2022-08-22T20:25:41.535Z,23.01
2022-08-22T20:28:08.064Z,23.02
2022-08-22T20:30:42.907Z,22.96
2022-08-22T20:33:16.797Z,23.01
2022-08-22T20:35:59.086Z,22.95
2022-08-22T20:38:35.080Z,22.87
2022-08-22T20:41:21.938Z,22.96
2022-08-22T20:44:09.067Z,22.87
2022-08-22T20:46:44.854Z,22.92
2022-08-22T20:49:19.150Z,22.93
2022-08-22T20:51:56.748Z,22.76
2022-08-22T20:54:26.240Z,22.81
2022-08-22T20:56:57.044Z,22.67
2022-08-22T20:59:26.405Z,22.73
2022-08-22T21:02:13.102Z,22.80
2022-08-22T21:04:50.706Z,22.77
2022-08-22T21:07:32.400Z,22.96
2022-08-22T21:10:00.529Z,22.98
2022-08-22T21:12:27.023Z,23.08
2022-08-22T21:14:53.520Z,23.20
2022-08-22T21:17:29.491Z,23.12
2022-08-22T21:20:20.868Z,23.35
2022-08-22T21:22:48.149Z,23.33
2022-08-22T21:25:14.975Z,23.46
2022-08-22T21:27:45.231Z,23.38
2022-08-22T21:30:12.065Z,23.41
2022-08-22T21:32:50.050Z,23.43
2022-08-22T21:35:30.967Z,23.31
2022-08-22T21:37:58.099Z,23.29
2022-08-22T21:40:34.508Z,23.26
2022-08-22T21:43:11.133Z,23.25
2022-08-22T21:45:37.574Z,23.30
2022-08-22T21:48:34.111Z,23.25
2022-08-22T21:51:23.775Z,23.17
2022-08-22T21:54:16.187Z,23.00
2022-08-22T21:56:37.377Z,23.01
2022-08-22T21:59:51.526Z,22.90
2022-08-22T22:02:31.265Z,22.70
2022-08-22T22:05:02.268Z,22.66
2022-08-22T22:07:29.484Z,22.66
2022-08-22T22:09:56.244Z,22.51
2022-08-22T22:12:23.872Z,22.46
2022-08-22T22:14:51.036Z,22.41
2022-08-22T22:17:19.440Z,22.49
2022-08-22T22:19:46.891Z,22.48
2022-08-22T22:22:13.866Z,22.28
2022-08-22T22:24:40.386Z,22.17
2022-08-22T22:27:14.898Z,22.13
2022-08-22T22:29:43.829Z,21.95
2022-08-22T22:32:10.354Z,21.85
2022-08-22T22:34:39.641Z,21.90
2022-08-22T22:37:07.832Z,21.96
2022-08-22T22:39:35.376Z,21.98
2022-08-22T22:42:03.110Z,21.85
2022-08-22T22:44:29.723Z,21.65
2022-08-22T22:46:59.444Z,21.55
2022-08-22T22:49:26.118Z,21.48
2022-08-22T22:51:53.273Z,21.32
2022-08-22T22:54:20.142Z,21.18
2022-08-22T22:56:54.607Z,21.15
2022-08-22T22:59:24.585Z,21.14
2022-08-22T23:02:07.632Z,21.12
2022-08-22T23:04:36.000Z,21.02
2022-08-22T23:07:03.704Z,21.06
2022-08-22T23:09:38.809Z,21.06
2022-08-22T23:12:12.843Z,20.92
2022-08-22T23:14:39.571Z,20.91
2022-08-22T23:17:06.414Z,20.82
2022-08-22T23:19:33.499Z,20.80
2022-08-22T23:22:00.895Z,20.83
2022-08-22T23:24:28.758Z,20.80
2022-08-22T23:26:55.422Z,20.74
2022-08-22T23:29:22.144Z,20.86
2022-08-22T23:31:54.181Z,20.89
2022-08-22T23:34:23.911Z,20.96
2022-08-22T23:36:52.587Z,20.92
2022-08-22T23:39:21.339Z,20.97
2022-08-22T23:41:48.717Z,20.88
2022-08-22T23:44:18.401Z,20.95
2022-08-22T23:46:45.472Z,20.84
2022-08-22T23:49:12.753Z,20.97
2022-08-22T23:51:39.538Z,20.75
2022-08-22T23:54:06.642Z,20.74
2022-08-22T23:56:39.419Z,20.78
2022-08-22T23:59:09.272Z,20.86
